Time;durP1;ratioP1;P1;durP2;ratioP2;P2;SDS_P1;SDS_P2;PMS_P1;PMS_P2;Temp;Humidity;BMP_temperature;BMP_pressure;BME280_temperature;BME280_humidity;BME280_pressure;Samples;Min_cycle;Max_cycle;Signal;HPM_P1;HPM_P2
2022/08/01 00:00:15;;;;;;;4.33;2.40;;;;;;;13.23;73.59;99945.19;2073631;84;21572;-71
2022/08/01 00:03:16;;;;;;;7.17;2.77;;;;;;;13.22;73.81;99941.36;2065933;84;21010;-69
2022/08/01 00:06:18;;;;;;;10.82;2.77;;;;;;;13.19;73.61;99947.06;2082323;84;21020;-71
2022/08/01 00:09:19;;;;;;;11.45;2.33;;;;;;;13.17;73.42;99946.42;2070341;84;21045;-70
2022/08/01 00:12:20;;;;;;;10.68;2.90;;;;;;;13.11;73.23;99944.00;2089410;83;21045;-73
2022/08/01 00:15:21;;;;;;;5.45;2.80;;;;;;;13.08;73.48;99940.37;2123612;82;21438;-70
2022/08/01 00:18:22;;;;;;;6.78;3.30;;;;;;;13.07;73.32;99942.73;2122137;83;21007;-71
2022/08/01 00:21:23;;;;;;;9.25;2.90;;;;;;;13.02;73.25;99943.80;2117102;82;21052;-70
2022/08/01 00:24:24;;;;;;;6.20;2.40;;;;;;;12.96;73.15;99936.05;2123767;83;20992;-70
2022/08/01 00:27:25;;;;;;;15.95;3.05;;;;;;;12.91;73.14;99938.44;2120648;82;21075;-70
2022/08/01 00:30:26;;;;;;;14.35;2.90;;;;;;;12.90;73.45;99937.31;2125022;82;21013;-70
2022/08/01 00:33:27;;;;;;;4.00;2.72;;;;;;;12.92;73.70;99945.91;2121083;82;21001;-69
2022/08/01 00:36:28;;;;;;;4.22;3.10;;;;;;;12.92;74.07;99940.11;2121373;82;21522;-70
2022/08/01 00:39:29;;;;;;;7.60;3.55;;;;;;;12.92;73.98;99937.92;2121138;82;21064;-70
2022/08/01 00:42:30;;;;;;;5.28;2.90;;;;;;;12.93;74.34;99935.09;2123467;82;21450;-69
2022/08/01 00:45:31;;;;;;;4.05;3.20;;;;;;;12.88;73.94;99933.48;2119107;82;21650;-70
2022/08/01 00:48:32;;;;;;;7.78;2.90;;;;;;;12.86;73.96;99934.17;2118041;82;21025;-69
2022/08/01 00:51:34;;;;;;;8.15;3.00;;;;;;;12.77;74.39;99932.63;2118603;82;21053;-69
2022/08/01 00:54:36;;;;;;;10.05;3.17;;;;;;;12.73;74.59;99920.72;2121490;82;21045;-69
2022/08/01 00:57:37;;;;;;;5.05;2.72;;;;;;;12.75;74.40;99923.99;2118904;82;21706;-70
2022/08/01 01:00:38;;;;;;;6.70;2.30;;;;;;;12.75;74.50;99923.99;2120982;82;21006;-70
2022/08/01 01:03:39;;;;;;;6.72;2.55;;;;;;;12.75;74.05;99931.98;2120084;82;21536;-69
2022/08/01 01:07:15;;;;;;;8.50;2.47;;;;;;;12.70;73.99;99934.40;2119791;82;21018;-74
2022/08/01 01:10:48;;;;;;;5.58;2.60;;;;;;;12.61;73.79;99937.63;2120529;82;20988;-71
2022/08/01 01:13:54;;;;;;;8.20;2.58;;;;;;;12.61;74.01;99939.47;2115264;83;21103;-71
2022/08/01 01:16:58;;;;;;;4.95;2.65;;;;;;;12.57;74.11;99936.36;2119280;82;21421;-71
2022/08/01 01:20:03;;;;;;;6.25;2.27;;;;;;;12.55;73.98;99939.20;2123986;83;21005;-74
2022/08/01 01:23:30;;;;;;;5.58;3.75;;;;;;;12.53;74.24;99937.24;2115056;82;21052;-70
2022/08/01 01:27:01;;;;;;;4.92;2.85;;;;;;;12.46;74.59;99937.64;2115833;82;21551;-70
2022/08/01 01:30:03;;;;;;;8.30;2.72;;;;;;;12.42;75.12;99928.90;2117700;83;21104;-71
2022/08/01 01:33:09;;;;;;;5.67;2.70;;;;;;;12.43;75.21;99926.03;2118676;82;21048;-70
2022/08/01 01:36:13;;;;;;;5.45;3.05;;;;;;;12.47;75.02;99922.02;2113714;83;21052;-70
2022/08/01 01:39:16;;;;;;;9.08;3.60;;;;;;;12.47;74.63;99919.36;2095032;83;21476;-70
2022/08/01 01:42:19;;;;;;;5.47;2.75;;;;;;;12.41;75.02;99913.92;2119173;83;21040;-70
2022/08/01 01:45:21;;;;;;;6.67;3.67;;;;;;;12.31;74.93;99910.22;2121057;83;21512;-71
2022/08/01 01:48:24;;;;;;;5.70;3.65;;;;;;;12.29;75.12;99900.26;2118029;83;21007;-70
2022/08/01 01:51:27;;;;;;;4.87;2.33;;;;;;;12.30;75.43;99903.23;2119081;82;21052;-73
2022/08/01 01:54:34;;;;;;;10.65;2.30;;;;;;;12.28;74.90;99901.28;2066241;84;20995;-70
2022/08/01 01:57:44;;;;;;;10.30;2.83;;;;;;;12.23;74.82;99903.66;2092289;83;21052;-70
2022/08/01 02:00:48;;;;;;;9.20;3.22;;;;;;;12.24;74.68;99906.62;2092728;84;21005;-71
2022/08/01 02:03:51;;;;;;;17.25;3.85;;;;;;;12.25;74.90;99903.80;2093981;83;21055;-70
2022/08/01 02:06:54;;;;;;;12.50;3.50;;;;;;;12.19;74.58;99905.86;2118232;82;21088;-70
2022/08/01 02:09:58;;;;;;;10.82;3.85;;;;;;;12.13;74.70;99897.25;2118526;83;21025;-70
2022/08/01 02:13:02;;;;;;;5.42;2.90;;;;;;;12.12;74.65;99902.27;2102462;82;21050;-70
2022/08/01 02:16:05;;;;;;;11.90;3.62;;;;;;;12.07;75.21;99896.15;2132716;82;20998;-70
2022/08/01 02:19:06;;;;;;;6.12;3.25;;;;;;;12.11;75.40;99889.98;2131026;82;21922;-71
2022/08/01 02:22:12;;;;;;;10.53;3.87;;;;;;;12.09;75.63;99891.48;2080859;84;20974;-71
2022/08/01 02:25:30;;;;;;;10.88;3.22;;;;;;;12.02;75.87;99890.58;2112341;82;21081;-71
2022/08/01 02:28:36;;;;;;;4.33;3.20;;;;;;;11.99;75.97;99886.92;2076149;84;21109;-70
2022/08/01 02:31:44;;;;;;;9.98;3.30;;;;;;;11.99;76.25;99896.23;2132170;82;21049;-70
2022/08/01 02:34:47;;;;;;;8.30;3.30;;;;;;;12.00;76.31;99892.58;2130688;82;21005;-70
2022/08/01 02:37:50;;;;;;;8.83;4.03;;;;;;;11.99;76.09;99892.75;2132680;82;21516;-73
2022/08/01 02:40:57;;;;;;;5.10;3.35;;;;;;;12.02;76.44;99891.91;2133794;82;21064;-70
2022/08/01 02:44:03;;;;;;;4.37;3.40;;;;;;;11.98;76.44;99890.59;2130905;82;21072;-70
2022/08/01 02:47:05;;;;;;;4.37;2.77;;;;;;;11.94;76.78;99890.66;2134917;82;21092;-71
2022/08/01 02:50:08;;;;;;;7.65;2.85;;;;;;;11.98;76.75;99890.59;2104587;82;21519;-73
2022/08/01 02:53:13;;;;;;;9.95;2.50;;;;;;;12.04;76.85;99894.36;2132706;82;21075;-70
2022/08/01 02:56:17;;;;;;;7.37;2.52;;;;;;;12.07;76.47;99896.15;2133618;82;21595;-71
2022/08/01 02:59:25;;;;;;;5.85;2.70;;;;;;;12.06;76.45;99897.67;2133653;82;21000;-69
2022/08/01 03:02:27;;;;;;;15.10;3.02;;;;;;;12.11;76.66;99896.63;2106026;83;21010;-70
2022/08/01 03:05:30;;;;;;;3.67;2.80;;;;;;;12.17;76.73;99892.42;2133665;82;21951;-70
2022/08/01 03:08:35;;;;;;;9.03;2.58;;;;;;;12.20;76.69;99898.70;2132353;82;20966;-73
2022/08/01 03:11:40;;;;;;;5.92;2.98;;;;;;;12.25;76.97;99901.64;2130677;82;21009;-70
2022/08/01 03:14:43;;;;;;;10.93;2.83;;;;;;;12.24;76.81;99901.30;2129619;82;21496;-71
2022/08/01 03:17:47;;;;;;;11.73;3.12;;;;;;;12.25;76.79;99903.80;2130499;83;20954;-70
2022/08/01 03:20:49;;;;;;;10.80;3.00;;;;;;;12.27;77.04;99906.26;2128937;83;21092;-70
2022/08/01 03:23:56;;;;;;;7.72;2.95;;;;;;;12.32;76.90;99898.56;2130526;83;21374;-71
2022/08/01 03:26:57;;;;;;;5.75;2.95;;;;;;;12.37;77.02;99900.17;2130038;82;21058;-70
2022/08/01 03:30:00;;;;;;;5.85;2.87;;;;;;;12.42;77.16;99899.12;2131238;83;21017;-70
2022/08/01 03:33:01;;;;;;;20.30;3.58;;;;;;;12.50;77.35;99899.03;2109244;83;21104;-70
2022/08/01 03:36:04;;;;;;;6.22;3.65;;;;;;;12.54;77.41;99896.81;2129841;82;21100;-70
2022/08/01 03:39:08;;;;;;;9.03;3.20;;;;;;;12.61;77.51;99891.56;2129140;83;21198;-71
2022/08/01 03:42:14;;;;;;;5.65;3.17;;;;;;;12.69;77.65;99895.45;2131435;83;21515;-70
2022/08/01 03:45:35;;;;;;;6.85;3.30;;;;;;;12.74;77.66;99893.07;2130532;82;21513;-69
2022/08/01 03:48:41;;;;;;;8.98;3.42;;;;;;;12.82;77.79;99888.16;2131418;82;21009;-70
2022/08/01 03:51:45;;;;;;;8.45;3.10;;;;;;;12.83;77.87;99890.61;2111005;83;21029;-72
2022/08/01 03:54:49;;;;;;;7.75;3.60;;;;;;;12.89;78.08;99896.52;2129643;83;21053;-71
2022/08/01 03:57:51;;;;;;;6.72;4.28;;;;;;;13.01;78.36;99897.70;2130075;83;21061;-70
2022/08/01 04:00:54;;;;;;;9.25;4.45;;;;;;;13.16;78.48;99897.64;2130743;82;21080;-70
2022/08/01 04:03:55;;;;;;;9.38;4.62;;;;;;;13.28;78.55;99902.00;2130061;82;20974;-70
2022/08/01 04:06:56;;;;;;;10.43;4.50;;;;;;;13.37;78.62;99899.52;2129042;83;21080;-71
2022/08/01 04:09:58;;;;;;;9.70;4.25;;;;;;;13.42;78.68;99900.29;2131193;83;21032;-71
2022/08/01 04:13:00;;;;;;;6.12;3.67;;;;;;;13.54;79.12;99897.42;2125378;82;21080;-71
2022/08/01 04:16:01;;;;;;;6.97;4.17;;;;;;;13.71;79.14;99890.48;2122227;83;21503;-70
2022/08/01 04:19:03;;;;;;;7.85;4.25;;;;;;;13.81;79.09;99891.81;2120975;82;21032;-71
2022/08/01 04:22:05;;;;;;;8.50;4.10;;;;;;;13.87;79.16;99890.22;2116369;83;21448;-70
2022/08/01 04:25:27;;;;;;;6.55;3.87;;;;;;;13.96;79.18;99893.56;2117515;83;21117;-70
2022/08/01 04:28:31;;;;;;;5.15;4.08;;;;;;;14.03;79.25;99889.93;2117448;83;22231;-71
2022/08/01 04:31:35;;;;;;;8.70;4.17;;;;;;;14.13;79.33;99890.91;2125092;82;21005;-70
2022/08/01 04:34:39;;;;;;;5.90;3.67;;;;;;;14.28;79.35;99900.16;2120037;83;21378;-70
2022/08/01 04:37:43;;;;;;;4.65;3.98;;;;;;;14.39;79.34;99902.76;2119059;83;21755;-74
2022/08/01 04:40:47;;;;;;;8.20;4.70;;;;;;;14.48;79.33;99904.27;2122009;83;21591;-71
2022/08/01 04:43:48;;;;;;;5.90;4.58;;;;;;;14.54;79.43;99904.84;2115020;83;21092;-70
2022/08/01 04:46:54;;;;;;;4.97;4.15;;;;;;;14.60;79.53;99895.22;2122357;82;21857;-71
2022/08/01 04:49:56;;;;;;;5.75;4.00;;;;;;;14.66;79.44;99897.09;2117427;82;21025;-70
2022/08/01 04:52:57;;;;;;;5.53;3.90;;;;;;;14.70;79.36;99895.17;2120951;82;21004;-70
2022/08/01 04:55:58;;;;;;;6.55;4.00;;;;;;;14.76;79.43;99900.22;2117498;82;20950;-71
2022/08/01 05:02:19;;;;;;;8.75;4.70;;;;;;;14.88;79.19;99895.13;2120743;82;21556;-71
2022/08/01 05:05:20;;;;;;;5.30;4.30;;;;;;;14.92;79.33;99892.35;2117593;82;21491;-78
2022/08/01 05:08:21;;;;;;;7.62;4.80;;;;;;;14.87;79.18;99890.30;2118720;82;21101;-77
2022/08/01 05:11:22;;;;;;;5.60;4.40;;;;;;;14.92;79.47;99897.21;2119352;82;21025;-77
2022/08/01 05:14:25;;;;;;;6.92;4.42;;;;;;;15.01;79.45;99893.33;2120197;82;21464;-78
2022/08/01 05:17:26;;;;;;;8.43;4.15;;;;;;;15.08;79.46;99900.53;2122558;82;21056;-78
2022/08/01 05:20:27;;;;;;;6.78;3.98;;;;;;;15.10;79.42;99899.83;2123005;82;20941;-78
2022/08/01 05:23:28;;;;;;;4.85;3.83;;;;;;;15.02;79.35;99881.60;2123350;82;21033;-78
2022/08/01 05:26:29;;;;;;;10.08;4.03;;;;;;;15.02;79.35;99881.60;2121741;82;21521;-78
2022/08/01 05:29:31;;;;;;;6.75;3.70;;;;;;;15.20;79.54;99901.09;2122313;82;21028;-78
2022/08/01 05:32:32;;;;;;;6.12;3.85;;;;;;;15.28;79.65;99899.24;2123197;82;21053;-78
2022/08/01 05:35:33;;;;;;;4.25;3.85;;;;;;;15.31;79.71;99896.16;2120805;82;21484;-78
2022/08/01 05:38:34;;;;;;;6.10;4.17;;;;;;;15.34;79.65;99893.08;2118554;82;21061;-78
2022/08/01 05:41:37;;;;;;;4.90;4.28;;;;;;;15.37;79.80;99892.18;2123037;82;21554;-78
2022/08/01 05:44:38;;;;;;;4.62;4.10;;;;;;;15.38;79.60;99897.83;2117841;83;21055;-75
2022/08/01 05:47:39;;;;;;;5.83;4.33;;;;;;;15.37;79.66;99888.66;2120397;82;21106;-77
2022/08/01 05:50:40;;;;;;;4.65;3.65;;;;;;;15.35;79.62;99893.41;2116542;82;21031;-78
2022/08/01 05:53:41;;;;;;;7.22;4.33;;;;;;;15.37;79.56;99890.00;2119918;82;20967;-80
2022/08/01 05:56:42;;;;;;;3.87;3.42;;;;;;;15.42;79.64;99888.88;2120670;82;21480;-77
2022/08/01 05:59:43;;;;;;;7.08;4.03;;;;;;;15.47;79.79;99888.58;2118315;82;20986;-79
2022/08/01 06:02:44;;;;;;;4.40;3.98;;;;;;;15.60;80.04;99897.14;2119886;82;21073;-76
2022/08/01 06:05:45;;;;;;;6.40;3.98;;;;;;;15.76;79.96;99895.10;2115297;82;21024;-77
2022/08/01 06:08:47;;;;;;;5.72;3.70;;;;;;;15.90;79.90;99896.73;2120500;82;20989;-78
2022/08/01 06:11:48;;;;;;;5.87;3.75;;;;;;;16.03;79.63;99894.06;2119051;82;20937;-77
2022/08/01 06:14:49;;;;;;;7.15;4.00;;;;;;;16.08;79.47;99890.25;2128179;82;21036;-77
2022/08/01 06:17:50;;;;;;;5.83;4.15;;;;;;;16.14;79.20;99893.43;2130343;82;22150;-77
2022/08/01 06:20:51;;;;;;;10.45;3.85;;;;;;;16.22;79.16;99892.88;2131525;82;21795;-77
2022/08/01 06:23:52;;;;;;;6.35;3.50;;;;;;;16.32;79.02;99898.64;2130237;82;21001;-77
2022/08/01 06:26:53;;;;;;;5.17;3.80;;;;;;;16.41;78.89;99900.05;2131512;82;21494;-78
2022/08/01 06:29:54;;;;;;;6.03;3.87;;;;;;;16.46;78.80;99902.92;2128784;82;21023;-77
2022/08/01 06:32:58;;;;;;;5.08;4.20;;;;;;;16.56;78.88;99907.86;2129764;82;21076;-77
2022/08/01 06:35:58;;;;;;;5.05;3.80;;;;;;;16.64;78.78;99910.80;2132458;82;21030;-77
2022/08/01 06:38:59;;;;;;;7.20;4.33;;;;;;;16.73;78.41;99912.23;2104554;83;21012;-77
2022/08/01 06:42:00;;;;;;;5.83;3.67;;;;;;;16.90;78.62;99912.08;2131942;82;21005;-77
2022/08/01 06:45:09;;;;;;;5.75;4.10;;;;;;;17.08;78.24;99914.58;2131211;82;21037;-81
2022/08/01 06:48:10;;;;;;;9.35;4.87;;;;;;;17.17;77.76;99913.28;2132284;82;21097;-81
2022/08/01 06:51:15;;;;;;;6.60;4.00;;;;;;;17.27;77.61;99916.33;2130467;82;21108;-82
2022/08/01 06:54:15;;;;;;;4.72;3.72;;;;;;;17.34;77.53;99914.94;2132162;82;20987;-81
2022/08/01 06:57:17;;;;;;;7.53;4.42;;;;;;;17.46;77.28;99910.55;2105891;82;20926;-82
2022/08/01 07:00:26;;;;;;;5.72;3.95;;;;;;;17.58;77.11;99906.64;2131331;82;21091;-78
2022/08/01 07:03:25;;;;;;;4.42;3.75;;;;;;;17.66;76.65;99910.40;2128324;82;21029;-77
2022/08/01 07:06:26;;;;;;;5.30;3.85;;;;;;;17.73;76.39;99913.02;2130919;82;21060;-77
2022/08/01 07:09:27;;;;;;;7.30;4.17;;;;;;;17.79;76.40;99908.95;2131587;82;20960;-76
2022/08/01 07:12:29;;;;;;;4.67;4.05;;;;;;;17.82;76.11;99910.39;2130506;82;21484;-76
2022/08/01 07:15:30;;;;;;;5.97;3.80;;;;;;;17.86;75.83;99907.05;2118311;82;21610;-73
2022/08/01 07:18:31;;;;;;;8.85;4.83;;;;;;;17.95;76.10;99909.47;2114083;83;20975;-73
2022/08/01 07:21:32;;;;;;;4.97;4.08;;;;;;;18.04;75.96;99910.82;2091313;83;20977;-74
2022/08/01 07:24:34;;;;;;;5.50;3.58;;;;;;;18.11;76.17;99910.25;2125334;82;21806;-73
2022/08/01 07:27:36;;;;;;;5.20;3.75;;;;;;;18.28;76.11;99914.53;2092242;84;21074;-73
2022/08/01 07:30:37;;;;;;;8.85;3.55;;;;;;;18.53;75.74;99909.11;2088124;83;21009;-73
2022/08/01 07:33:38;;;;;;;8.03;3.67;;;;;;;18.82;75.72;99911.57;2087422;84;20989;-73
2022/08/01 07:36:39;;;;;;;7.97;4.35;;;;;;;19.09;75.14;99911.22;2090214;84;21045;-73
2022/08/01 07:39:40;;;;;;;6.03;4.00;;;;;;;19.40;75.25;99911.50;2092634;84;20982;-73
2022/08/01 07:42:43;;;;;;;8.63;3.80;;;;;;;19.72;74.56;99911.28;2088033;83;21085;-73
2022/08/01 07:45:47;;;;;;;4.90;3.92;;;;;;;20.08;74.25;99912.42;2082330;83;21042;-73
2022/08/01 07:48:48;;;;;;;4.15;3.62;;;;;;;20.43;73.95;99916.95;2085468;83;21556;-73
2022/08/01 07:51:49;;;;;;;5.12;3.58;;;;;;;20.83;73.52;99913.50;2084817;83;21164;-73
2022/08/01 07:54:50;;;;;;;5.70;3.58;;;;;;;21.27;72.88;99907.06;2059121;83;21737;-73
2022/08/01 07:57:51;;;;;;;8.83;4.62;;;;;;;21.57;72.14;99915.43;2084727;84;21103;-73
2022/08/01 08:00:52;;;;;;;4.30;3.80;;;;;;;21.85;71.86;99908.63;2087531;84;21036;-73
2022/08/01 08:03:53;;;;;;;6.72;3.70;;;;;;;22.14;71.25;99905.28;2082840;84;21029;-73
2022/08/01 08:06:55;;;;;;;5.40;3.90;;;;;;;22.42;70.51;99906.24;2082011;84;21024;-73
2022/08/01 08:09:56;;;;;;;9.40;4.00;;;;;;;22.91;69.96;99897.37;2083544;84;21104;-74
2022/08/01 08:12:57;;;;;;;8.43;4.25;;;;;;;23.19;68.65;99895.80;2079295;83;21049;-74
2022/08/01 08:15:59;;;;;;;4.25;3.83;;;;;;;23.44;68.17;99901.20;2038018;85;21094;-75
2022/08/01 08:19:00;;;;;;;5.53;3.75;;;;;;;24.14;67.75;99895.26;2040877;85;21005;-74
2022/08/01 08:22:01;;;;;;;9.50;4.25;;;;;;;24.55;66.45;99895.49;2041757;86;21057;-74
2022/08/01 08:25:03;;;;;;;9.33;4.70;;;;;;;24.84;65.62;99897.25;2044106;86;21041;-74
2022/08/01 08:28:04;;;;;;;6.28;4.30;;;;;;;25.17;63.45;99906.88;2019789;85;21030;-74
2022/08/01 08:31:05;;;;;;;11.60;4.30;;;;;;;25.30;62.71;99906.89;2038048;85;21014;-73
2022/08/01 08:34:07;;;;;;;9.83;4.12;;;;;;;25.43;62.62;99913.70;2038928;86;21608;-74
2022/08/01 08:37:08;;;;;;;6.70;3.85;;;;;;;25.49;62.50;99909.91;2039930;86;21019;-77
2022/08/01 08:40:10;;;;;;;6.58;3.52;;;;;;;25.66;61.45;99908.28;2038113;85;20991;-77
2022/08/01 08:43:12;;;;;;;3.87;3.58;;;;;;;25.66;60.79;99909.64;2027521;86;21025;-76
2022/08/01 08:46:15;;;;;;;9.40;4.03;;;;;;;25.58;60.56;99911.53;2043220;85;20967;-76
2022/08/01 08:49:20;;;;;;;12.35;4.15;;;;;;;25.59;60.17;99909.89;2048038;86;21065;-77
2022/08/01 08:52:22;;;;;;;7.95;4.03;;;;;;;25.63;59.86;99913.71;2035581;85;21517;-76
2022/08/01 08:55:24;;;;;;;4.95;3.50;;;;;;;25.67;59.41;99918.05;2039562;85;21085;-76
2022/08/01 08:58:26;;;;;;;6.85;3.77;;;;;;;25.52;59.02;99913.44;2043795;86;21069;-76
2022/08/01 09:01:28;;;;;;;7.55;3.80;;;;;;;25.35;58.97;99923.19;2044766;86;21050;-76
2022/08/01 09:04:29;;;;;;;7.12;3.55;;;;;;;25.15;58.40;99925.87;2041995;86;21041;-76
2022/08/01 09:07:30;;;;;;;4.20;3.55;;;;;;;24.89;58.92;99926.28;2018015;86;21604;-76
2022/08/01 09:10:35;;;;;;;4.12;3.70;;;;;;;24.65;59.03;99935.42;2036819;86;21648;-75
2022/08/01 09:13:36;;;;;;;7.22;3.60;;;;;;;24.47;59.32;99937.52;2050186;84;21137;-74
2022/08/01 09:16:43;;;;;;;4.17;3.87;;;;;;;24.54;58.68;99939.44;2076907;84;21107;-76
2022/08/01 09:19:51;;;;;;;4.17;3.77;;;;;;;24.48;58.33;99936.42;2077413;84;21053;-76
2022/08/01 09:22:52;;;;;;;5.45;3.95;;;;;;;24.42;58.63;99936.09;2082444;84;21528;-77
2022/08/01 09:25:54;;;;;;;6.30;3.90;;;;;;;24.36;58.41;99937.15;2077562;84;20999;-75
2022/08/01 09:28:55;;;;;;;4.08;3.58;;;;;;;24.33;57.50;99930.89;2077684;84;21037;-78
2022/08/01 09:31:57;;;;;;;6.03;3.45;;;;;;;24.13;57.83;99943.23;2083147;83;21030;-78
2022/08/01 09:35:04;;;;;;;4.83;3.50;;;;;;;24.00;58.03;99942.32;2077946;84;21707;-77
2022/08/01 09:38:15;;;;;;;4.47;3.12;;;;;;;23.95;58.23;99942.27;2067156;84;21092;-77
2022/08/01 09:41:17;;;;;;;8.50;3.10;;;;;;;24.05;58.21;99946.97;2075107;84;21844;-77
2022/08/01 09:44:20;;;;;;;4.60;2.83;;;;;;;24.18;57.69;99945.14;2078744;84;21132;-80
2022/08/01 09:47:22;;;;;;;5.40;3.17;;;;;;;24.43;57.66;99940.45;2075735;84;21037;-82
2022/08/01 09:50:23;;;;;;;3.08;2.87;;;;;;;24.88;57.04;99939.05;2082881;83;20991;-81
2022/08/01 09:53:27;;;;;;;3.50;3.02;;;;;;;25.58;56.89;99948.20;2080585;84;21120;-80
2022/08/01 09:56:38;;;;;;;4.80;3.02;;;;;;;26.07;55.65;99938.17;2057781;84;20994;-79
2022/08/01 09:59:43;;;;;;;5.80;2.65;;;;;;;26.23;54.77;99935.70;2076428;84;21855;-80
2022/08/01 10:02:44;;;;;;;5.28;2.90;;;;;;;26.70;54.89;99930.44;2082214;83;21038;-78
2022/08/01 10:05:47;;;;;;;5.75;2.67;;;;;;;27.24;53.48;99930.20;2077263;83;21064;-79
2022/08/01 10:08:49;;;;;;;6.28;2.98;;;;;;;27.41;53.27;99927.90;2076009;84;20954;-80
2022/08/01 10:11:50;;;;;;;3.40;2.80;;;;;;;27.46;52.76;99926.51;2057103;84;21028;-80
2022/08/01 10:14:54;;;;;;;3.67;2.60;;;;;;;27.69;52.21;99924.16;2070417;84;21358;-80
2022/08/01 10:18:01;;;;;;;4.95;2.70;;;;;;;28.02;52.02;99923.09;2068066;85;21052;-84
2022/08/01 10:21:04;;;;;;;3.08;2.58;;;;;;;28.13;51.37;99917.25;2067289;85;21545;-79
2022/08/01 10:24:06;;;;;;;2.47;2.22;;;;;;;28.11;51.24;99916.71;2069125;85;21081;-79
2022/08/01 10:27:10;;;;;;;2.75;2.45;;;;;;;28.26;51.17;99920.38;2070442;85;21010;-79
2022/08/01 10:30:12;;;;;;;4.35;2.20;;;;;;;28.38;50.62;99909.34;2067403;85;21520;-79
2022/08/01 10:33:15;;;;;;;4.60;2.35;;;;;;;28.31;49.91;99914.88;2067642;84;21077;-79
2022/08/01 10:36:20;;;;;;;5.60;2.58;;;;;;;28.30;49.45;99907.25;2067346;85;21116;-75
2022/08/01 10:39:24;;;;;;;6.58;2.12;;;;;;;28.46;49.56;99910.63;2067670;85;21054;-78
2022/08/01 10:42:29;;;;;;;2.42;2.22;;;;;;;28.56;49.59;99907.80;2065398;85;21031;-78
2022/08/01 10:45:31;;;;;;;2.85;2.60;;;;;;;28.55;49.13;99905.34;2033979;85;21381;-79
2022/08/01 10:49:02;;;;;;;3.22;2.50;;;;;;;28.50;49.23;99911.69;2031701;86;21391;-78
2022/08/01 10:52:04;;;;;;;5.10;2.60;;;;;;;28.74;49.40;99910.29;2029557;85;21128;-78
2022/08/01 10:55:13;;;;;;;2.40;2.20;;;;;;;28.98;49.02;99902.06;2118114;82;21030;-78
2022/08/01 10:58:32;;;;;;;3.72;2.40;;;;;;;28.98;49.02;99902.06;2120668;82;21099;-78
2022/08/01 11:01:34;;;;;;;4.78;2.72;;;;;;;28.57;48.26;99893.03;2120334;82;21035;-77
2022/08/01 11:05:03;;;;;;;3.40;2.52;;;;;;;28.57;48.26;99893.03;2123523;82;22020;-77
2022/08/01 11:08:22;;;;;;;4.28;2.60;;;;;;;28.73;47.93;99899.68;2119003;82;21055;-77
2022/08/01 11:11:23;;;;;;;4.05;2.80;;;;;;;28.60;48.07;99888.34;2119632;82;21009;-77
2022/08/01 11:14:27;;;;;;;2.70;2.47;;;;;;;28.96;48.41;99908.92;2119786;82;21032;-73
2022/08/01 11:17:48;;;;;;;2.75;2.55;;;;;;;29.04;47.34;99910.47;2067342;85;21125;-75
2022/08/01 11:21:02;;;;;;;3.17;2.65;;;;;;;29.02;47.23;99905.81;2118082;82;21048;-72
2022/08/01 11:24:04;;;;;;;4.50;2.72;;;;;;;29.04;47.38;99909.11;2066495;85;21058;-73
2022/08/01 11:27:33;;;;;;;5.05;2.70;;;;;;;28.98;47.18;99906.16;2116470;82;21652;-74
2022/08/01 11:30:34;;;;;;;5.75;2.65;;;;;;;28.98;47.05;99904.80;2117227;82;21026;-76
2022/08/01 11:33:44;;;;;;;3.15;2.52;;;;;;;28.95;46.59;99900.48;2101981;83;21524;-76
2022/08/01 11:36:46;;;;;;;3.20;2.95;;;;;;;28.89;46.93;99900.27;2115898;82;20992;-75
2022/08/01 11:40:18;;;;;;;3.40;2.60;;;;;;;28.49;47.15;99900.50;2074548;84;21297;-76
2022/08/01 11:43:19;;;;;;;5.87;2.85;;;;;;;28.49;47.15;99900.50;2069737;84;21045;-75
2022/08/01 11:46:50;;;;;;;3.67;2.47;;;;;;;28.21;47.17;99904.06;2073920;84;21053;-75
2022/08/01 11:49:54;;;;;;;4.42;2.85;;;;;;;28.05;47.91;99897.42;2071046;84;21005;-75
2022/08/01 11:53:01;;;;;;;4.72;2.60;;;;;;;27.81;47.63;99900.09;2073334;84;21112;-75
2022/08/01 11:56:03;;;;;;;4.60;2.33;;;;;;;27.62;47.75;99897.24;2071604;84;21132;-75
2022/08/01 11:59:05;;;;;;;3.72;2.45;;;;;;;27.39;47.96;99901.48;2070917;84;21080;-75
2022/08/01 12:02:28;;;;;;;5.55;2.35;;;;;;;27.26;48.59;99896.14;2071591;84;21056;-75
2022/08/01 12:05:33;;;;;;;2.47;2.27;;;;;;;27.13;49.06;99906.27;2072245;84;21068;-75
2022/08/01 12:08:36;;;;;;;2.58;2.37;;;;;;;27.04;49.37;99901.96;2073305;84;21037;-75
2022/08/01 12:11:39;;;;;;;3.47;2.50;;;;;;;26.87;49.40;99907.52;2073803;84;21528;-75
2022/08/01 12:14:40;;;;;;;3.08;2.72;;;;;;;26.75;49.92;99905.93;2063056;84;21113;-75
2022/08/01 12:17:46;;;;;;;4.10;2.95;;;;;;;26.64;50.00;99907.59;2050259;86;21054;-76
2022/08/01 12:20:47;;;;;;;3.58;2.52;;;;;;;26.35;50.06;99910.37;2043874;85;21065;-75
2022/08/01 12:24:01;;;;;;;2.83;2.60;;;;;;;26.21;50.64;99912.04;2054113;85;21041;-75
2022/08/01 12:27:04;;;;;;;6.05;3.40;;;;;;;26.16;50.97;99913.44;2045865;84;21054;-75
2022/08/01 12:30:13;;;;;;;3.17;2.87;;;;;;;26.10;51.28;99909.91;2046771;85;21085;-75
2022/08/01 12:33:20;;;;;;;5.17;3.22;;;;;;;26.04;51.84;99904.19;2047170;85;21334;-75
2022/08/01 12:36:29;;;;;;;4.45;3.02;;;;;;;26.06;52.19;99907.45;2046878;85;21004;-75
2022/08/01 12:39:34;;;;;;;4.03;3.20;;;;;;;26.16;52.48;99909.36;2045314;85;21071;-75
2022/08/01 12:42:39;;;;;;;3.10;2.90;;;;;;;26.29;53.08;99903.88;2046366;85;21073;-75
2022/08/01 12:45:43;;;;;;;3.33;3.02;;;;;;;26.32;52.41;99904.67;2044776;85;21060;-75
2022/08/01 12:48:45;;;;;;;3.47;3.00;;;;;;;26.45;52.10;99897.86;2042819;85;21548;-75
2022/08/01 12:51:47;;;;;;;4.65;2.87;;;;;;;26.54;52.70;99900.30;2050205;85;21621;-75
2022/08/01 12:55:08;;;;;;;2.80;2.50;;;;;;;26.60;52.18;99898.62;2045592;85;21005;-75
2022/08/01 12:58:12;;;;;;;4.40;2.62;;;;;;;26.98;52.05;99892.75;2025185;86;20998;-76
2022/08/01 13:01:14;;;;;;;3.20;2.70;;;;;;;27.37;50.94;99893.33;2047357;85;21045;-76
2022/08/01 13:04:15;;;;;;;4.30;2.87;;;;;;;27.67;50.31;99893.64;2047538;85;21006;-76
2022/08/01 13:07:17;;;;;;;2.87;2.65;;;;;;;27.95;50.10;99893.42;2050561;85;21564;-75
2022/08/01 13:10:30;;;;;;;8.53;2.98;;;;;;;27.98;49.05;99891.47;2043232;85;20970;-76
2022/08/01 13:13:42;;;;;;;3.10;2.33;;;;;;;27.97;48.77;99884.96;2045112;85;21559;-76
2022/08/01 13:16:48;;;;;;;3.72;2.83;;;;;;;27.77;48.90;99884.58;2065449;84;21077;-76
2022/08/01 13:19:49;;;;;;;4.95;2.22;;;;;;;27.50;48.87;99889.96;2065890;85;21566;-79
2022/08/01 13:22:51;;;;;;;4.15;2.50;;;;;;;27.28;48.86;99895.84;2068266;85;21018;-75
2022/08/01 13:25:55;;;;;;;4.67;2.70;;;;;;;27.20;49.33;99889.11;2065819;85;21037;-75
2022/08/01 13:29:07;;;;;;;4.00;2.75;;;;;;;27.13;49.06;99887.75;2066821;85;21002;-75
2022/08/01 13:32:17;;;;;;;2.75;2.50;;;;;;;27.07;49.55;99881.53;2068848;84;21092;-75
2022/08/01 13:35:20;;;;;;;3.60;2.70;;;;;;;26.91;49.34;99888.15;2067002;85;21124;-74
2022/08/01 13:41:42;;;;;;;3.37;2.30;;;;;;;26.74;49.21;99893.95;2068892;85;21100;-75
2022/08/01 13:44:47;;;;;;;3.05;2.75;;;;;;;26.65;49.87;99897.80;2066328;85;21053;-74
2022/08/01 13:47:49;;;;;;;3.35;2.72;;;;;;;26.64;50.30;99905.70;2043130;85;21065;-74
2022/08/01 13:50:50;;;;;;;4.00;2.52;;;;;;;26.56;50.52;99906.28;2066203;85;21081;-74
2022/08/01 13:53:51;;;;;;;3.27;2.80;;;;;;;26.58;51.20;99909.52;2067969;85;21045;-74
2022/08/01 13:56:53;;;;;;;2.98;2.60;;;;;;;26.64;51.48;99911.15;2070873;85;21509;-75
2022/08/01 13:59:55;;;;;;;5.12;3.33;;;;;;;26.59;52.00;99920.13;2068710;85;21073;-74
2022/08/01 14:02:56;;;;;;;4.40;3.17;;;;;;;26.48;51.98;99919.06;2066785;84;21068;-75
2022/08/01 14:05:57;;;;;;;3.35;3.02;;;;;;;26.45;52.55;99916.89;2068139;85;21002;-74
2022/08/01 14:08:58;;;;;;;5.25;3.05;;;;;;;26.43;52.49;99917.70;2070154;85;21044;-75
2022/08/01 14:11:59;;;;;;;3.30;3.00;;;;;;;26.36;52.76;99914.73;2070634;85;21037;-75
2022/08/01 14:15:01;;;;;;;4.62;2.90;;;;;;;26.48;52.96;99914.42;2067919;85;21498;-77
2022/08/01 14:18:05;;;;;;;3.00;2.80;;;;;;;26.71;52.95;99915.73;2069502;85;20991;-77
2022/08/01 14:21:06;;;;;;;5.15;2.75;;;;;;;26.87;52.91;99914.31;2037918;85;21060;-76
2022/08/01 14:24:10;;;;;;;4.67;3.27;;;;;;;27.11;52.41;99907.64;2073234;84;21521;-75
2022/08/01 14:27:11;;;;;;;5.05;2.77;;;;;;;27.25;51.92;99909.47;2040079;85;21071;-76
2022/08/01 14:30:13;;;;;;;3.12;2.83;;;;;;;27.21;51.66;99911.70;2046571;85;21852;-76